Kezdőlap
METAR-TAF:

METAR-TAF

Repülőterek :

Tokió Heliport, Japán

földrajzi szélesség: 35-38N, földrajzi hosszúság: 139-51E, magasság: 5 m

Jelenlegi meteorológiai megfigyelések

A jelentés 15 órával és 42 perccel ezelõtt készült, 07:00 UTC
Déli szél 10 kt, dél-délkeleti és délnyugati között változik
Hőmérséklet 32°C
Páratartalom 59%
Légköri nyomás 1009 hPa
Látótávolság 10 km, vagy több
Kevés felhő 3000 lábon
Szakadozott felhőzet

METAR: RJTI 210700Z 19010KT 160V220 9999 FEW030 BKN/// 32/23 Q1009

Idő: 07:42 (22:42 UTC)


TAF: hiányzik

Meteorológiai megfigyelések és előrejelzések több, mint 4000 repülőtéren (METAR és TAF jelentéseket).

A térképen piros és sárga pontok jelzik az elérhető meteorológiai állomásokat.

Mozgassa az egeret a pont fölött, hogy megjelenjen az állomás neve.

Azután kattintson az időjárási megfigyelések és előrejelzések megtekintéséhez.

A térkép megváltoztatása: kattintson a fekete keresztel jelölt zöld gombra ráközelítéshez, a vonallal jelölt zöld gombra távolításhoz, vagy a zöld nyilakra a szomszédos térképek eléréséhez.


METAR-TAF: